Mobridge Municipal Airport
KMBG : now visible

Airfield :











YOU CAN JOIN US ON...

 
LOGIN :

Register | Disclaimer

   EN    FR    IT 

 









Legend :    VFR   Marginal VFR   IFR   Intensive IFR   Very Intensive IFR
Visi :
Ceiling :
>= 8 km
>= 3000ft
5 to 8 km
1000 to 3000 ft
1500m to 5 km
500 to 1000 ft
800 to 1500m
200 to 500 ft
< 800m
< 200 ft
Symbols :   Thunderstorms  Fog  Heavy snow  Heavy precipitations  Wind > 20 kt






- Airport Elevation : 1716 ft


KMBG - Mobridge Municipal

CURRENT METAR :
  • 242216Z AUTO 08009KT 3SM -SN BKN040 OVC050 M04/M08 A3024 RMK AO2 P0000 T10441083 $

EXPIRED METARs :
  • 242206Z AUTO 08009KT 2 1/2SM -SN BKN037 OVC048 M04/M08 A3023 RMK AO2 P0000 T10441083 $
  • 242152Z AUTO 08009KT 1 1/4SM -SN FEW011 BKN030 OVC038 M04/M08 A3022 RMK AO2 SLP262 P0001 T10441078 $
  • 242125Z AUTO 09010KT 1SM -SN FEW011 OVC017 M04/M08 A3021 RMK AO2 P0001 T10441083 $
  • 242115Z AUTO 08010KT 3/4SM -SN VV016 M04/M08 A3023 RMK AO2 P0001 T10441083 $
  • 242059Z AUTO 09010KT 1SM -SN VV015 M04/M08 A3022 RMK AO2 P0000 T10441078 $
  • 242052Z AUTO 08011KT 3/4SM -SN VV015 M05/M08 A3022 RMK AO2 SLP262 P0001 60002 T10501083 55007 $
  • 241952Z AUTO 10012KT 1 1/4SM -SN BKN018 OVC026 M04/M08 A3022 RMK AO2 SLP262 P0001 T10441083 $
  • 241938Z AUTO 10013KT 1SM -SN VV013 M04/M08 A3022 RMK AO2 P0001 T10441083 $

TAF KMBG
Valid from the 24 at 21:00 until the 25 at 18:00 UTC


242032Z 2421/2518 09013KT 3/4SM -SN BR OVC020
TEMPO 2421/2422 1 1/2SM BKN015
FM242200 07011KT 1SM -SN BR OVC021
FM250700 02009KT 2SM -SN BR OVC018
FM251100 35008KT 4SM -SN BR OVC017
FM251300 34009KT P6SM BKN030
KZMP FIR / North America



MET'MAP, your aeronautical weather chart ! - Copyright ORBIFLY December 2007 - Disclaimer

ORBIFLY MET'MAP TEAM :

Programming & Development : Alexandra Zaïnal
Concept & original design : Baudouin d'Aumeries
Assistance for programming : Marc-Olivier Méhu
Technical & hardware support : Manuel Goepfert

Contact : metmap@orbifly.com




SOURCES & CREDITS :

   NOAA       Earth
Advisory